Time;durP1;ratioP1;P1;durP2;ratioP2;P2;SDS_P1;SDS_P2;PMS_P1;PMS_P2;Temp;Humidity;BMP_temperature;BMP_pressure;BME280_temperature;BME280_humidity;BME280_pressure;Samples;Min_cycle;Max_cycle;Signal;HPM_P1;HPM_P2
2022/03/20 07:54:04;;;;;;;;;;;;;;;13.73;57.32;100284.13;5719843;23;20220;-66
2022/03/20 07:56:37;;;;;;;;;;;;;;;14.07;56.21;100296.44;4807936;29;19958;-67
2022/03/20 07:59:05;;;;;;;;;;;;;;;13.24;58.64;100285.06;4824800;29;19953;-67
2022/03/20 08:01:33;;;;;;;;;;;;;;;12.92;60.33;100292.72;4818418;29;20019;-67
2022/03/20 08:04:06;;;;;;;;;;;;;;;12.95;59.95;100286.38;4823157;29;19959;-66
2022/03/20 08:06:33;;;;;;;;;;;;;;;12.66;63.18;100298.13;4811623;29;19951;-66
2022/03/20 08:09:00;;;;;;;;;;;;;;;12.69;65.02;100284.16;4812631;29;19956;-67
2022/03/20 08:11:28;;;;;;;;;;;;;;;12.65;63.72;100288.88;4819018;29;19949;-67
2022/03/20 08:13:57;;;;;;;;;;;;;;;11.96;67.54;100297.09;4816631;29;19951;-67
2022/03/20 08:16:27;;;;;;;;;;;;;;;11.51;68.07;100294.56;4813887;29;19953;-67
2022/03/20 08:18:56;;;;;;;;;;;;;;;11.47;70.96;100285.25;4819032;29;19953;-67
2022/03/20 08:21:24;;;;;;;;;;;;;;;10.90;74.06;100296.69;4813894;29;19951;-67
2022/03/20 08:23:53;;;;;;;;;;;;;;;10.79;73.30;100301.94;4813665;29;20256;-67
2022/03/20 08:26:20;;;;;;;;;;;;;;;10.89;73.38;100287.47;4815068;29;19953;-67
2022/03/20 08:28:47;;;;;;;;;;;;;;;10.97;72.12;100297.72;4811944;29;19975;-67
2022/03/20 08:31:15;;;;;;;;;;;;;;;10.77;76.92;100287.47;4813336;29;19983;-67
2022/03/20 08:33:42;;;;;;;;;;;;;;;10.78;77.20;100286.34;4811512;29;19959;-67
2022/03/20 08:36:12;;;;;;;;;;;;;;;10.50;80.04;100289.00;4815649;29;20252;-67
2022/03/20 08:38:40;;;;;;;;;;;;;;;10.43;80.23;100285.16;4814210;29;20337;-67
2022/03/20 08:44:29;;;;;;;;;;;;;;;10.24;84.01;100282.13;4800210;29;19968;-66
2022/03/20 08:46:56;;;;;;;;;;;;;;;10.62;82.45;100281.78;4808675;29;19959;-66
2022/03/20 08:49:24;;;;;;;;;;;;;;;10.57;83.63;100280.84;4799337;29;19952;-66
2022/03/20 08:51:51;;;;;;;;;;;;;;;11.01;81.53;100286.63;4810083;29;19955;-66
2022/03/20 08:54:18;;;;;;;;;;;;;;;10.73;83.28;100280.97;4808800;29;19959;-66
2022/03/20 08:56:46;;;;;;;;;;;;;;;10.94;83.03;100284.44;4809519;29;20348;-66
2022/03/20 08:59:13;;;;;;;;;;;;;;;10.67;81.67;100284.34;4809120;29;20385;-66
2022/03/20 09:01:40;;;;;;;;;;;;;;;9.98;87.23;100273.19;4805298;29;19948;-66
2022/03/20 09:04:07;;;;;;;;;;;;;;;10.40;89.88;100281.06;4806522;29;19962;-67
2022/03/20 09:06:35;;;;;;;;;;;;;;;10.35;90.98;100286.06;4806792;29;19957;-67
2022/03/20 09:09:02;;;;;;;;;;;;;;;9.58;85.46;100284.94;4805558;29;19972;-69
2022/03/20 09:11:30;;;;;;;;;;;;;;;10.12;88.29;100276.50;4799706;29;19950;-68
2022/03/20 09:13:57;;;;;;;;;;;;;;;10.24;83.77;100282.13;4798918;29;19950;-71
2022/03/20 09:19:11;;;;;;;;;;;;;;;10.38;84.28;100268.59;4802298;29;19962;-67
2022/03/20 09:21:38;;;;;;;;;;;;;;;10.43;83.40;100266.41;4808108;29;19951;-67
2022/03/20 09:24:06;;;;;;;;;;;;;;;10.47;78.79;100272.91;4803515;29;20002;-67
2022/03/20 09:26:34;;;;;;;;;;;;;;;10.36;84.83;100273.75;4805277;29;20284;-76
2022/03/20 09:29:01;;;;;;;;;;;;;;;9.98;84.14;100262.81;4807144;29;19996;-75
2022/03/20 09:31:31;;;;;;;;;;;;;;;10.05;84.21;100273.44;4810113;29;19956;-70
2022/03/20 09:33:59;;;;;;;;;;;;;;;10.18;85.07;100263.91;4802865;29;19951;-68
2022/03/20 09:36:26;;;;;;;;;;;;;;;10.41;79.74;100270.72;4804216;29;19953;-68
2022/03/20 09:38:53;;;;;;;;;;;;;;;10.32;80.73;100272.81;4804969;29;19953;-69
2022/03/20 09:41:22;;;;;;;;;;;;;;;10.19;82.13;100263.59;4808552;29;19955;-69
2022/03/20 09:43:50;;;;;;;;;;;;;;;10.70;84.94;100264.06;4809309;29;19971;-69
2022/03/20 09:46:20;;;;;;;;;;;;;;;10.79;76.29;100271.16;4807508;29;19982;-68
2022/03/20 09:48:48;;;;;;;;;;;;;;;10.77;76.87;100264.28;4809993;29;19976;-69
2022/03/20 09:51:17;;;;;;;;;;;;;;;10.67;83.68;100265.56;4816175;29;19962;-69
2022/03/20 09:53:44;;;;;;;;;;;;;;;10.62;84.36;100273.38;4816476;29;19949;-69
2022/03/20 09:56:12;;;;;;;;;;;;;;;10.60;85.58;100270.94;4812329;29;20356;-69
2022/03/20 09:58:39;;;;;;;;;;;;;;;10.80;80.59;100258.81;4807582;29;19956;-69
2022/03/20 10:01:08;;;;;;;;;;;;;;;10.43;77.85;100260.81;4818717;29;19961;-70
2022/03/20 10:03:36;;;;;;;;;;;;;;;10.80;79.21;100261.59;4791834;29;19957;-67
2022/03/20 10:06:17;;;;;;;;;;;;;;;10.75;81.79;100263.81;4778840;29;19955;-68
2022/03/20 10:08:58;;;;;;;;;;;;;;;10.26;78.13;100263.81;4797227;29;19979;-67
2022/03/20 10:11:27;;;;;;;;;;;;;;;10.91;78.83;100256.31;4800363;29;20636;-67
2022/03/20 10:14:07;;;;;;;;;;;;;;;10.96;73.89;100265.28;4803868;29;19960;-67
2022/03/20 10:16:36;;;;;;;;;;;;;;;10.67;73.47;100265.56;4805833;29;19964;-68
2022/03/20 10:19:39;;;;;;;;;;;;;;;10.85;75.14;100268.94;4801120;29;19957;-68
2022/03/20 10:22:09;;;;;;;;;;;;;;;11.03;73.81;100264.69;4750824;30;19952;-68
2022/03/20 10:24:37;;;;;;;;;;;;;;;11.28;71.55;100257.03;4789464;29;19981;-68
2022/03/20 10:27:09;;;;;;;;;;;;;;;10.91;74.16;100259.13;4802591;29;19954;-68
2022/03/20 10:29:46;;;;;;;;;;;;;;;11.14;76.28;100260.25;4802109;29;19976;-68
2022/03/20 10:32:13;;;;;;;;;;;;;;;11.08;78.64;100264.44;4802628;29;19955;-67
2022/03/20 10:34:52;;;;;;;;;;;;;;;11.37;77.66;100263.34;4803870;29;19959;-67
2022/03/20 10:37:40;;;;;;;;;;;;;;;10.97;75.20;100260.53;4807941;29;19955;-68
2022/03/20 10:40:08;;;;;;;;;;;;;;;10.80;69.00;100264.41;4799186;29;19958;-67
2022/03/20 10:42:36;;;;;;;;;;;;;;;10.34;74.38;100254.50;4813819;29;19973;-68
2022/03/20 10:45:07;;;;;;;;;;;;;;;10.40;76.78;100247.50;4796481;29;20259;-68
2022/03/20 10:47:34;;;;;;;;;;;;;;;10.88;71.15;100260.63;4790051;30;19954;-68
2022/03/20 10:50:08;;;;;;;;;;;;;;;10.90;72.88;100255.53;4790534;30;19950;-67
2022/03/20 10:52:36;;;;;;;;;;;;;;;11.00;70.24;100257.81;4790825;30;19953;-67
2022/03/20 10:55:12;;;;;;;;;;;;;;;10.73;68.78;100253.00;4790691;30;19961;-68
2022/03/20 10:57:39;;;;;;;;;;;;;;;10.74;67.62;100265.78;4790562;30;19955;-68
2022/03/20 11:00:10;;;;;;;;;;;;;;;10.81;65.30;100248.44;4790522;30;19952;-67
2022/03/20 11:02:39;;;;;;;;;;;;;;;10.23;68.20;100253.34;4791004;30;19951;-68
2022/03/20 11:05:08;;;;;;;;;;;;;;;10.61;70.07;100250.22;4790701;30;20396;-68
2022/03/20 11:07:36;;;;;;;;;;;;;;;10.69;68.94;100252.03;4790264;30;19951;-67
2022/03/20 11:10:11;;;;;;;;;;;;;;;10.75;69.34;100252.63;4790347;30;19978;-68
2022/03/20 11:12:39;;;;;;;;;;;;;;;10.64;64.37;100245.88;4774673;30;19946;-68
2022/03/20 11:15:09;;;;;;;;;;;;;;;10.67;68.50;100248.78;4790460;30;19969;-68
2022/03/20 11:17:39;;;;;;;;;;;;;;;10.51;67.57;100243.06;4790964;30;19947;-68
2022/03/20 11:20:07;;;;;;;;;;;;;;;10.48;70.27;100248.56;4790807;30;19954;-68
2022/03/20 11:22:37;;;;;;;;;;;;;;;10.69;66.34;100243.66;4790833;30;19965;-68
2022/03/20 11:25:05;;;;;;;;;;;;;;;10.71;65.70;100243.31;4790213;30;19949;-68
2022/03/20 11:27:35;;;;;;;;;;;;;;;10.51;66.73;100225.50;4791130;29;19952;-68
2022/03/20 11:30:02;;;;;;;;;;;;;;;10.86;67.45;100235.00;4793748;30;19978;-67
2022/03/20 11:32:29;;;;;;;;;;;;;;;10.85;65.72;100246.56;4794392;30;20235;-67
2022/03/20 11:34:57;;;;;;;;;;;;;;;10.83;63.14;100235.69;4794150;30;19953;-68
2022/03/20 11:37:40;;;;;;;;;;;;;;;10.77;62.72;100227.91;4793540;30;19953;-68
2022/03/20 11:40:08;;;;;;;;;;;;;;;11.01;63.86;100231.47;4794328;30;19958;-67
2022/03/20 11:42:36;;;;;;;;;;;;;;;11.01;62.64;100223.06;4793408;30;19971;-68
2022/03/20 11:45:04;;;;;;;;;;;;;;;10.86;65.68;100226.59;4793742;30;19961;-67
2022/03/20 11:47:38;;;;;;;;;;;;;;;10.96;67.38;100230.88;4793227;30;19954;-68
2022/03/20 11:50:06;;;;;;;;;;;;;;;11.02;65.12;100216.31;4794127;30;19976;-68
2022/03/20 11:52:55;;;;;;;;;;;;;;;11.07;62.81;100221.66;4793617;30;19963;-68
2022/03/20 11:55:25;;;;;;;;;;;;;;;11.31;63.18;100217.94;4794167;30;19950;-68
2022/03/20 11:57:52;;;;;;;;;;;;;;;11.44;58.63;100213.13;4793735;30;20280;-67
2022/03/20 12:00:24;;;;;;;;;;;;;;;11.15;56.22;100206.69;4793512;30;19958;-68
2022/03/20 12:03:03;;;;;;;;;;;;;;;11.28;57.44;100207.44;4793177;30;20349;-68
2022/03/20 12:05:31;;;;;;;;;;;;;;;11.28;56.98;100201.03;4794007;30;19957;-67
2022/03/20 12:08:16;;;;;;;;;;;;;;;11.25;54.07;100205.34;4793638;30;19954;-67
2022/03/20 12:11:02;;;;;;;;;;;;;;;11.10;54.07;100203.34;4793131;30;19959;-67
2022/03/20 12:13:44;;;;;;;;;;;;;;;10.76;56.15;100195.50;4793262;30;19955;-67
2022/03/20 12:16:12;;;;;;;;;;;;;;;10.98;58.14;100198.56;4793940;30;19951;-67
2022/03/20 12:18:58;;;;;;;;;;;;;;;10.82;57.26;100200.50;4793389;30;19985;-68
2022/03/20 12:21:45;;;;;;;;;;;;;;;11.04;58.24;100185.97;4793477;30;19949;-68
2022/03/20 12:24:31;;;;;;;;;;;;;;;11.03;59.05;100178.72;4792908;30;19949;-67
2022/03/20 12:27:18;;;;;;;;;;;;;;;11.03;56.10;100195.53;4793493;30;19948;-67
2022/03/20 12:29:55;;;;;;;;;;;;;;;11.13;55.92;100194.22;4792825;30;19973;-67
2022/03/20 12:32:26;;;;;;;;;;;;;;;11.23;56.28;100183.31;4793446;30;19984;-67
2022/03/20 12:34:56;;;;;;;;;;;;;;;11.47;55.15;100188.00;4792773;30;19952;-68
2022/03/20 12:37:29;;;;;;;;;;;;;;;11.55;56.40;100194.59;4793184;30;19954;-67
2022/03/20 12:40:02;;;;;;;;;;;;;;;11.52;52.30;100179.31;4791946;29;19947;-67
2022/03/20 12:42:31;;;;;;;;;;;;;;;11.27;53.40;100174.22;4792991;30;20256;-67
2022/03/20 12:44:58;;;;;;;;;;;;;;;11.36;56.09;100163.66;4793259;30;19954;-68
2022/03/20 12:47:27;;;;;;;;;;;;;;;11.10;53.16;100173.34;4792759;30;19959;-68
2022/03/20 12:50:06;;;;;;;;;;;;;;;10.87;53.38;100165.84;4792765;30;19983;-67
2022/03/20 12:52:35;;;;;;;;;;;;;;;11.08;53.58;100169.25;4793063;30;19951;-68
2022/03/20 12:55:09;;;;;;;;;;;;;;;10.91;54.65;100156.38;4792847;30;19963;-67
2022/03/20 12:57:36;;;;;;;;;;;;;;;10.96;55.98;100146.91;4792805;30;19951;-68
2022/03/20 13:00:09;;;;;;;;;;;;;;;11.02;56.79;100148.31;4792445;30;19952;-67
2022/03/20 13:03:09;;;;;;;;;;;;;;;11.40;50.22;100137.38;4792763;30;19958;-68
2022/03/20 13:05:40;;;;;;;;;;;;;;;11.43;53.07;100133.03;4773269;30;19955;-68
2022/03/20 13:08:09;;;;;;;;;;;;;;;11.10;51.74;100136.94;4792396;30;19952;-68
2022/03/20 13:10:38;;;;;;;;;;;;;;;11.12;52.71;100134.63;4792481;30;20002;-68
2022/03/20 13:13:08;;;;;;;;;;;;;;;11.18;51.55;100144.38;4792506;30;19950;-68
2022/03/20 13:15:37;;;;;;;;;;;;;;;11.14;53.90;100131.44;4792560;30;19951;-67
2022/03/20 13:18:06;;;;;;;;;;;;;;;10.93;50.90;100122.47;4792356;30;19982;-68
2022/03/20 13:20:34;;;;;;;;;;;;;;;11.21;50.21;100124.06;4792094;30;20238;-68
2022/03/20 13:23:09;;;;;;;;;;;;;;;11.22;53.10;100120.06;4792427;30;19952;-68
2022/03/20 13:25:38;;;;;;;;;;;;;;;11.25;52.46;100112.16;4792424;30;19956;-68
2022/03/20 13:28:05;;;;;;;;;;;;;;;11.36;49.95;100111.25;4792183;30;19955;-68
2022/03/20 13:30:37;;;;;;;;;;;;;;;11.26;49.31;100127.75;4792070;30;20362;-68
2022/03/20 13:33:05;;;;;;;;;;;;;;;11.15;51.20;100110.69;4792324;30;19974;-68
2022/03/20 13:35:32;;;;;;;;;;;;;;;11.29;50.93;100104.66;4791837;30;19949;-68
2022/03/20 13:38:00;;;;;;;;;;;;;;;11.46;49.62;100102.34;4791864;30;19952;-68
2022/03/20 13:40:29;;;;;;;;;;;;;;;11.36;48.17;100108.47;4791715;30;19951;-68
2022/03/20 13:42:56;;;;;;;;;;;;;;;11.29;48.98;100104.66;4791577;30;19981;-68
2022/03/20 13:45:32;;;;;;;;;;;;;;;11.18;49.35;100096.78;4791330;30;19963;-68
2022/03/20 13:48:01;;;;;;;;;;;;;;;11.21;48.24;100100.84;4791850;30;19962;-68
2022/03/20 13:50:30;;;;;;;;;;;;;;;11.10;46.93;100089.34;4790558;29;19979;-68
2022/03/20 13:52:57;;;;;;;;;;;;;;;11.22;47.92;100096.88;4791436;30;19965;-68
2022/03/20 13:55:31;;;;;;;;;;;;;;;11.25;48.31;100090.53;4791239;30;20457;-67
2022/03/20 13:58:04;;;;;;;;;;;;;;;11.31;49.55;100091.91;4791992;30;19954;-68
2022/03/20 14:00:32;;;;;;;;;;;;;;;10.98;48.51;100085.81;4797844;29;19954;-68
2022/03/20 14:02:59;;;;;;;;;;;;;;;11.33;49.52;100089.56;4811514;29;19955;-68
2022/03/20 14:05:27;;;;;;;;;;;;;;;11.27;48.07;100079.81;4809202;29;20341;-68
2022/03/20 14:08:21;;;;;;;;;;;;;;;11.34;51.50;100087.59;4808954;29;20334;-68
2022/03/20 14:10:49;;;;;;;;;;;;;;;11.39;52.75;100084.53;4807197;29;19977;-67
2022/03/20 14:13:21;;;;;;;;;;;;;;;11.55;54.78;100079.72;4808642;29;19952;-68
2022/03/20 14:16:02;;;;;;;;;;;;;;;11.29;55.35;100077.47;4808835;29;19953;-68
2022/03/20 14:18:31;;;;;;;;;;;;;;;11.05;57.19;100083.22;4809580;29;19949;-68
2022/03/20 14:21:15;;;;;;;;;;;;;;;11.15;56.24;100082.69;4808694;29;19958;-68
2022/03/20 14:24:02;;;;;;;;;;;;;;;10.94;57.29;100074.50;4809344;29;20374;-68
2022/03/20 14:26:33;;;;;;;;;;;;;;;10.85;58.14;100095.44;4809057;29;20415;-68
2022/03/20 14:29:10;;;;;;;;;;;;;;;10.65;56.90;100090.84;4809058;29;20345;-68
2022/03/20 14:40:09;;;;;;;;;;;;;;;10.66;53.46;100086.88;4808935;29;20215;-68
2022/03/20 14:42:37;;;;;;;;;;;;;;;10.83;52.09;100089.38;4811111;29;19955;-68
2022/03/20 14:45:06;;;;;;;;;;;;;;;10.88;54.13;100089.91;4826819;29;19966;-67
2022/03/20 14:47:34;;;;;;;;;;;;;;;10.73;53.40;100092.69;4826776;29;19961;-68
2022/03/20 14:50:04;;;;;;;;;;;;;;;10.73;53.70;100081.47;4826611;29;19969;-67
2022/03/20 14:52:32;;;;;;;;;;;;;;;10.76;54.31;100089.97;4826826;29;19960;-68
2022/03/20 14:55:01;;;;;;;;;;;;;;;10.72;54.96;100083.47;4826837;29;19958;-68
2022/03/20 14:57:29;;;;;;;;;;;;;;;10.89;52.98;100063.56;4826534;29;19952;-68
2022/03/20 14:59:56;;;;;;;;;;;;;;;10.83;54.65;100081.78;4827323;29;19952;-68
2022/03/20 15:02:23;;;;;;;;;;;;;;;10.75;54.87;100074.38;4826873;29;19961;-68
2022/03/20 15:04:51;;;;;;;;;;;;;;;10.72;52.44;100074.25;4826536;29;19965;-68
2022/03/20 15:07:18;;;;;;;;;;;;;;;10.94;53.58;100073.69;4826589;29;19954;-68
2022/03/20 15:12:31;;;;;;;;;;;;;;;10.96;52.53;100060.97;4831445;29;19953;-68
2022/03/20 15:15:00;;;;;;;;;;;;;;;10.97;50.62;100062.59;4826418;29;19954;-67
2022/03/20 15:17:27;;;;;;;;;;;;;;;10.95;52.71;100056.56;4826421;29;19956;-68
2022/03/20 15:19:55;;;;;;;;;;;;;;;10.90;53.01;100048.41;4826384;29;19957;-67
2022/03/20 15:22:23;;;;;;;;;;;;;;;10.90;52.85;100056.81;4826358;29;19949;-68
2022/03/20 15:24:51;;;;;;;;;;;;;;;11.02;51.05;100059.53;4826674;29;19960;-68
2022/03/20 15:27:18;;;;;;;;;;;;;;;10.88;51.12;100053.53;4826326;29;19954;-67
2022/03/20 15:29:45;;;;;;;;;;;;;;;11.07;50.49;100052.88;4826320;29;20254;-67
2022/03/20 15:32:13;;;;;;;;;;;;;;;11.02;51.49;100055.94;4826356;29;20247;-68
2022/03/20 15:34:43;;;;;;;;;;;;;;;10.98;52.21;100046.63;4826178;29;19951;-68
2022/03/20 15:37:12;;;;;;;;;;;;;;;11.00;50.91;100059.06;4825985;29;19954;-68
2022/03/20 15:39:40;;;;;;;;;;;;;;;11.10;51.41;100047.34;4826198;29;19951;-68
2022/03/20 15:42:07;;;;;;;;;;;;;;;10.99;50.48;100053.84;4826239;29;19956;-67
2022/03/20 15:44:34;;;;;;;;;;;;;;;10.85;52.10;100040.28;4825996;29;19978;-68
2022/03/20 15:47:02;;;;;;;;;;;;;;;10.77;51.12;100057.22;4826025;29;19950;-68
2022/03/20 15:49:29;;;;;;;;;;;;;;;10.56;48.54;100049.03;4810372;29;20701;-68
2022/03/20 15:51:57;;;;;;;;;;;;;;;10.57;48.62;100050.66;4808480;29;19998;-68
2022/03/20 15:54:24;;;;;;;;;;;;;;;10.62;48.96;100053.19;4792160;29;20284;-67
2022/03/20 15:56:52;;;;;;;;;;;;;;;10.51;48.73;100046.50;4808489;29;19955;-67
2022/03/20 15:59:19;;;;;;;;;;;;;;;10.54;48.26;100046.56;4807710;29;19959;-67
2022/03/20 16:01:48;;;;;;;;;;;;;;;10.70;47.58;100041.03;4807729;29;20247;-68
2022/03/20 16:04:15;;;;;;;;;;;;;;;10.64;46.85;100050.06;4810452;29;19959;-68
2022/03/20 16:06:43;;;;;;;;;;;;;;;10.57;47.79;100059.03;4808315;29;20331;-68
2022/03/20 16:09:11;;;;;;;;;;;;;;;10.41;48.28;100058.16;4807732;29;19952;-67
2022/03/20 16:11:58;;;;;;;;;;;;;;;10.29;48.63;100061.00;4807725;29;20055;-67
2022/03/20 16:14:26;;;;;;;;;;;;;;;10.29;48.53;100061.00;4810973;29;19961;-67
2022/03/20 16:16:53;;;;;;;;;;;;;;;10.35;46.08;100059.56;4828974;29;19949;-67
2022/03/20 16:19:20;;;;;;;;;;;;;;;10.27;46.51;100052.94;4829150;29;19961;-68
2022/03/20 16:21:48;;;;;;;;;;;;;;;10.13;46.86;100060.09;4828665;29;19957;-68
2022/03/20 16:29:47;;;;;;;;;;;;;;;10.04;47.42;100054.59;4828789;29;19947;-67
2022/03/20 16:32:14;;;;;;;;;;;;;;;10.00;47.22;100052.88;4828954;29;19978;-68
2022/03/20 16:34:42;;;;;;;;;;;;;;;9.95;46.47;100056.72;4828882;29;19949;-67
2022/03/20 16:37:10;;;;;;;;;;;;;;;9.91;45.47;100062.19;4828535;29;19969;-67
2022/03/20 16:39:37;;;;;;;;;;;;;;;9.90;45.80;100063.34;4829126;29;19948;-68
2022/03/20 16:42:05;;;;;;;;;;;;;;;9.84;46.22;100061.97;4828336;29;19955;-67
2022/03/20 16:44:34;;;;;;;;;;;;;;;9.87;46.13;100061.28;4828705;29;19979;-67
2022/03/20 16:47:02;;;;;;;;;;;;;;;9.86;46.38;100067.19;4828399;29;19949;-67
2022/03/20 16:49:30;;;;;;;;;;;;;;;9.80;46.66;100065.81;4828688;29;19961;-67
2022/03/20 16:51:57;;;;;;;;;;;;;;;9.81;45.29;100070.22;4828494;29;20025;-68
2022/03/20 16:54:24;;;;;;;;;;;;;;;9.69;46.82;100062.66;4829030;29;19955;-68
2022/03/20 16:56:53;;;;;;;;;;;;;;;9.68;44.73;100068.63;4828290;29;19956;-68
2022/03/20 16:59:20;;;;;;;;;;;;;;;9.58;45.09;100074.66;4808040;29;19956;-68
2022/03/20 17:01:48;;;;;;;;;;;;;;;9.54;46.24;100074.53;4802914;29;20345;-68
2022/03/20 17:04:16;;;;;;;;;;;;;;;9.57;45.34;100067.44;4809181;29;19987;-67
2022/03/20 17:06:44;;;;;;;;;;;;;;;9.52;45.18;100064.88;4806664;29;19956;-68
2022/03/20 17:09:11;;;;;;;;;;;;;;;9.43;46.08;100069.75;4807969;29;19969;-67
2022/03/20 17:11:39;;;;;;;;;;;;;;;9.33;45.78;100073.81;4807498;29;19969;-68
2022/03/20 17:14:06;;;;;;;;;;;;;;;9.34;46.50;100071.84;4801144;29;19957;-67
2022/03/20 17:17:16;;;;;;;;;;;;;;;9.25;46.01;100071.94;4815298;29;20399;-67
2022/03/20 17:19:43;;;;;;;;;;;;;;;9.23;45.17;100069.50;4811467;29;19955;-67
2022/03/20 17:22:11;;;;;;;;;;;;;;;9.15;46.80;100070.41;4804119;29;20332;-68
2022/03/20 17:24:39;;;;;;;;;;;;;;;9.15;45.96;100081.56;4812299;29;19961;-68
2022/03/20 17:27:07;;;;;;;;;;;;;;;9.05;47.90;100082.00;4819366;29;19956;-68
2022/03/20 17:29:35;;;;;;;;;;;;;;;8.97;47.66;100082.94;4815134;29;19964;-68
2022/03/20 17:32:02;;;;;;;;;;;;;;;8.96;47.72;100081.28;4803561;29;20370;-66
2022/03/20 17:34:29;;;;;;;;;;;;;;;8.93;48.24;100092.28;5061316;24;19972;-68
2022/03/20 17:36:57;;;;;;;;;;;;;;;8.87;47.37;100090.91;4826255;29;19961;-69
2022/03/20 17:39:25;;;;;;;;;;;;;;;8.79;48.27;100098.19;4821579;29;19966;-68
2022/03/20 17:41:52;;;;;;;;;;;;;;;8.72;48.64;100095.13;4821937;29;19951;-68
2022/03/20 17:44:21;;;;;;;;;;;;;;;8.70;48.29;100102.22;4825562;29;19958;-67
2022/03/20 17:46:48;;;;;;;;;;;;;;;8.65;48.85;100108.00;4827602;29;19949;-68
2022/03/20 17:49:16;;;;;;;;;;;;;;;8.61;49.15;100107.06;4824292;29;20025;-71
2022/03/20 17:51:44;;;;;;;;;;;;;;;8.58;49.12;100111.34;4823551;29;19972;-69
2022/03/20 17:54:11;;;;;;;;;;;;;;;8.49;50.16;100107.78;4822395;29;19954;-68
2022/03/20 17:56:39;;;;;;;;;;;;;;;8.49;49.29;100114.19;4826011;29;19954;-68
2022/03/20 17:59:32;;;;;;;;;;;;;;;8.42;50.18;100116.72;4825415;29;20019;-69
2022/03/20 18:07:41;;;;;;;;;;;;;;;8.31;50.07;100121.06;4821267;29;20253;-68
2022/03/20 18:07:43;;;;;;;;;;;;;;;8.28;49.01;100123.69;4815670;29;19961;-69
2022/03/20 18:10:11;;;;;;;;;;;;;;;8.23;50.56;100127.47;4821179;29;19962;-70
2022/03/20 18:12:39;;;;;;;;;;;;;;;8.30;49.49;100133.34;4819142;29;19971;-69
2022/03/20 18:15:07;;;;;;;;;;;;;;;8.23;49.68;100133.03;4821111;29;19952;-68
2022/03/20 18:17:34;;;;;;;;;;;;;;;8.17;49.97;100134.38;4820438;29;20299;-68
2022/03/20 18:20:03;;;;;;;;;;;;;;;8.09;49.50;100135.28;4823197;29;19963;-67
2022/03/20 18:22:30;;;;;;;;;;;;;;;8.16;48.87;100137.53;4823585;29;19952;-67
2022/03/20 18:24:58;;;;;;;;;;;;;;;8.10;48.93;100136.06;4827121;29;19952;-66
2022/03/20 18:27:27;;;;;;;;;;;;;;;8.01;49.23;100138.91;4826157;29;19962;-67
2022/03/20 18:29:54;;;;;;;;;;;;;;;8.02;48.88;100145.31;4815936;29;20412;-67
2022/03/20 18:32:23;;;;;;;;;;;;;;;8.09;48.45;100143.63;4821702;29;19970;-67
2022/03/20 18:34:50;;;;;;;;;;;;;;;8.03;48.88;100146.94;4823616;29;19976;-67
2022/03/20 18:37:18;;;;;;;;;;;;;;;8.04;47.91;100143.81;4823450;29;19962;-66
2022/03/20 18:39:46;;;;;;;;;;;;;;;8.00;49.11;100156.78;4825084;29;19956;-66
2022/03/20 18:42:14;;;;;;;;;;;;;;;7.98;47.71;100159.09;4818760;29;19948;-67
2022/03/20 18:44:41;;;;;;;;;;;;;;;7.98;48.43;100159.09;4823268;29;19953;-66
2022/03/20 18:47:09;;;;;;;;;;;;;;;7.92;48.50;100164.03;4825464;29;19957;-66
2022/03/20 18:49:37;;;;;;;;;;;;;;;7.97;47.92;100165.81;4822449;29;19952;-67
2022/03/20 18:52:05;;;;;;;;;;;;;;;7.93;48.55;100159.28;4823484;29;19977;-68
2022/03/20 18:54:32;;;;;;;;;;;;;;;7.87;48.10;100172.56;4821951;29;19960;-65
2022/03/20 18:57:00;;;;;;;;;;;;;;;7.93;47.74;100167.63;4816998;29;19959;-66
2022/03/20 18:59:27;;;;;;;;;;;;;;;7.93;48.22;100170.41;4824681;29;20219;-67
2022/03/20 19:01:55;;;;;;;;;;;;;;;7.88;47.39;100167.81;4823671;29;19959;-67
2022/03/20 19:04:50;;;;;;;;;;;;;;;7.81;48.12;100165.56;4820657;29;19951;-67
2022/03/20 19:07:19;;;;;;;;;;;;;;;7.87;47.02;100167.00;4821343;29;19955;-77
2022/03/20 19:09:47;;;;;;;;;;;;;;;7.92;46.55;100168.78;4814840;29;19950;-68
2022/03/20 19:12:15;;;;;;;;;;;;;;;7.84;47.08;100169.66;4820237;29;20010;-68
2022/03/20 19:14:43;;;;;;;;;;;;;;;7.74;46.54;100178.38;4818383;29;19948;-69
2022/03/20 19:17:11;;;;;;;;;;;;;;;7.76;47.03;100173.28;5036179;24;19986;-71
2022/03/20 20:08:00;;;;;;;;;;;;;;;7.27;47.25;100220.06;4801062;29;19955;-71
